Time;durP1;ratioP1;P1;durP2;ratioP2;P2;SDS_P1;SDS_P2;PMS_P1;PMS_P2;Temp;Humidity;BMP_temperature;BMP_pressure;BME280_temperature;BME280_humidity;BME280_pressure;Samples;Min_cycle;Max_cycle;Signal;HPM_P1;HPM_P2
2022/09/23 00:00:21;;;;;;;11.70;8.65;;;;;;;7.37;100.00;101700.69;1039317;28;20316;-78
2022/09/23 00:01:06;;;;;;;9.55;8.65;;;;;;;7.41;100.00;101692.25;1040512;28;20442;-78
2022/09/23 00:01:37;;;;;;;8.85;8.05;;;;;;;7.46;100.00;101689.06;1039342;28;20312;-78
2022/09/23 00:02:09;;;;;;;8.35;7.55;;;;;;;7.43;100.00;101692.06;1042243;28;20382;-78
2022/09/23 00:02:41;;;;;;;9.32;8.43;;;;;;;7.43;100.00;101692.06;1037137;28;20798;-78
2022/09/23 00:03:15;;;;;;;9.35;8.55;;;;;;;7.42;100.00;101691.25;1041649;28;20291;-78
2022/09/23 00:03:48;;;;;;;9.43;8.55;;;;;;;7.45;100.00;101687.41;1044971;28;20449;-86
2022/09/23 00:04:19;;;;;;;9.43;8.63;;;;;;;7.46;100.00;101690.91;1044075;28;20295;-87
2022/09/23 00:04:51;;;;;;;10.50;8.88;;;;;;;7.46;100.00;101689.06;1035783;28;20323;-87
2022/09/23 00:05:23;;;;;;;9.68;8.75;;;;;;;7.44;100.00;101691.06;1037268;28;20658;-87
2022/09/23 00:05:59;;;;;;;11.75;9.00;;;;;;;7.43;100.00;101686.78;1041855;28;20482;-87
2022/09/23 00:06:30;;;;;;;13.18;8.43;;;;;;;7.42;100.00;101695.72;1041237;28;20291;-86
2022/09/23 00:07:02;;;;;;;10.52;9.57;;;;;;;7.43;100.00;101692.91;1044989;28;20634;-86
2022/09/23 00:07:33;;;;;;;11.15;9.95;;;;;;;7.46;100.00;101686.41;1048103;28;20298;-87
2022/09/23 00:08:06;;;;;;;11.13;9.80;;;;;;;7.49;100.00;101687.91;1043298;28;20306;-86
2022/09/23 00:08:39;;;;;;;10.55;9.55;;;;;;;7.40;100.00;101681.81;1037047;28;20301;-87
2022/09/23 00:09:11;;;;;;;11.07;9.15;;;;;;;7.46;100.00;101690.91;1037576;28;20445;-86
2022/09/23 00:09:42;;;;;;;10.25;9.25;;;;;;;7.49;100.00;101691.38;1035318;28;21831;-87
2022/09/23 00:10:14;;;;;;;10.43;9.48;;;;;;;7.44;100.00;101683.13;1037016;28;20304;-87
2022/09/23 00:10:46;;;;;;;10.35;9.38;;;;;;;7.47;100.00;101687.25;1036049;28;20350;-87
2022/09/23 00:11:20;;;;;;;11.00;10.10;;;;;;;7.49;100.00;101683.41;1039550;28;20386;-87
2022/09/23 00:11:52;;;;;;;10.90;9.73;;;;;;;7.48;100.00;101689.72;1044319;28;20777;-87
2022/09/23 00:12:23;;;;;;;10.25;9.18;;;;;;;7.50;100.00;101687.72;1045642;28;20295;-86
2022/09/23 00:12:56;;;;;;;11.48;9.93;;;;;;;7.40;100.00;101684.47;1047814;28;20310;-78
2022/09/23 00:13:27;;;;;;;11.10;10.10;;;;;;;7.42;100.00;101685.94;1047649;28;20608;-78
2022/09/23 00:13:59;;;;;;;11.43;10.23;;;;;;;7.48;100.00;101694.19;1043732;28;20397;-78
2022/09/23 00:14:30;;;;;;;10.55;9.65;;;;;;;7.47;100.00;101688.06;1043393;28;20288;-78
2022/09/23 00:15:03;;;;;;;11.82;9.27;;;;;;;7.46;100.00;101686.41;1043073;28;20303;-78
2022/09/23 00:15:38;;;;;;;10.75;9.65;;;;;;;7.46;100.00;101686.41;1040090;28;20296;-78
2022/09/23 00:16:12;;;;;;;9.68;8.70;;;;;;;7.49;100.00;101685.25;1039718;28;20359;-78
2022/09/23 00:16:44;;;;;;;10.88;9.88;;;;;;;7.50;100.00;101687.72;1038184;28;20304;-78
2022/09/23 00:17:15;;;;;;;10.43;9.40;;;;;;;7.52;100.00;101688.38;1037854;28;20786;-78
2022/09/23 00:17:47;;;;;;;10.13;8.52;;;;;;;7.62;100.00;101685.47;1035873;28;20312;-78
2022/09/23 00:18:19;;;;;;;10.48;9.38;;;;;;;7.61;100.00;101684.66;1038509;28;20296;-78
2022/09/23 00:18:51;;;;;;;10.32;8.88;;;;;;;7.56;100.00;101688.84;1039550;28;20315;-78
2022/09/23 00:19:22;;;;;;;9.70;8.80;;;;;;;7.57;100.00;101693.97;1040105;28;20300;-78
2022/09/23 00:19:54;;;;;;;10.75;8.57;;;;;;;7.62;100.00;101681.00;1047612;28;20455;-78
2022/09/23 00:20:27;;;;;;;9.38;8.30;;;;;;;7.64;100.00;101679.00;1043539;28;20314;-77
2022/09/23 00:21:07;;;;;;;9.57;8.68;;;;;;;7.67;100.00;101688.41;1040009;28;20793;-78
2022/09/23 00:21:38;;;;;;;9.23;8.32;;;;;;;7.68;100.00;101682.97;1030925;28;20329;-78
2022/09/23 00:22:11;;;;;;;11.23;9.15;;;;;;;7.63;100.00;101676.53;1033504;28;20724;-78
2022/09/23 00:22:43;;;;;;;9.25;8.38;;;;;;;7.48;100.00;101683.59;1036969;28;20484;-78
2022/09/23 00:23:14;;;;;;;11.45;9.82;;;;;;;7.50;100.00;101686.91;1037256;28;20296;-78
2022/09/23 00:23:46;;;;;;;10.32;9.30;;;;;;;7.54;100.00;101681.06;1044591;28;20295;-78
2022/09/23 00:24:18;;;;;;;8.80;8.05;;;;;;;7.58;100.00;101679.69;1043711;28;20481;-78
2022/09/23 00:24:50;;;;;;;9.65;8.85;;;;;;;7.50;100.00;101693.03;1043480;28;20389;-78
2022/09/23 00:25:21;;;;;;;10.27;9.38;;;;;;;7.55;100.00;101682.72;1044180;28;20331;-77
2022/09/23 00:26:01;;;;;;;11.20;10.07;;;;;;;7.56;100.00;101684.34;1043970;28;20295;-78
2022/09/23 00:26:33;;;;;;;9.13;8.32;;;;;;;7.53;100.00;101686.53;1042703;28;20796;-77
2022/09/23 00:27:04;;;;;;;11.43;10.43;;;;;;;7.53;100.00;101682.06;1039578;28;20310;-78
2022/09/23 00:27:37;;;;;;;11.45;9.38;;;;;;;7.53;100.00;101675.94;1039626;28;20300;-78
2022/09/23 00:28:09;;;;;;;10.02;9.23;;;;;;;7.54;100.00;101685.53;1034849;28;20785;-78
2022/09/23 00:28:41;;;;;;;10.32;9.25;;;;;;;7.52;100.00;101684.88;1036995;28;20762;-77
2022/09/23 00:29:14;;;;;;;9.57;8.77;;;;;;;7.39;100.00;101685.44;1039250;28;20311;-78
2022/09/23 00:29:47;;;;;;;10.93;9.93;;;;;;;7.48;100.00;101679.13;1040276;28;20372;-77
2022/09/23 00:30:18;;;;;;;11.15;9.85;;;;;;;7.49;100.00;101686.06;1039948;28;20292;-78
2022/09/23 00:30:50;;;;;;;10.73;9.82;;;;;;;7.50;100.00;101681.59;1040063;28;20339;-78
2022/09/23 00:31:24;;;;;;;11.27;9.05;;;;;;;7.49;100.00;101678.13;1043570;28;20303;-78
2022/09/23 00:31:55;;;;;;;10.35;9.45;;;;;;;7.50;100.00;101677.13;1040656;28;20296;-78
2022/09/23 00:32:30;;;;;;;11.50;9.93;;;;;;;7.51;100.00;101677.94;1043748;28;20315;-78
2022/09/23 00:33:01;;;;;;;10.15;9.10;;;;;;;7.51;100.00;101672.63;1039489;28;20350;-78
2022/09/23 00:33:33;;;;;;;9.63;8.73;;;;;;;7.48;100.00;101679.13;1040993;28;20768;-78
2022/09/23 00:34:04;;;;;;;12.50;11.32;;;;;;;7.50;100.00;101674.47;1047888;28;20286;-78
2022/09/23 00:34:36;;;;;;;10.65;9.75;;;;;;;7.43;100.00;101676.16;1048071;28;20298;-78
2022/09/23 00:35:08;;;;;;;10.13;9.23;;;;;;;7.38;100.00;101678.50;1047750;28;20309;-78
2022/09/23 00:35:39;;;;;;;10.88;9.88;;;;;;;7.39;100.00;101677.50;1047582;28;20740;-78
2022/09/23 00:36:16;;;;;;;10.30;9.43;;;;;;;7.39;100.00;101677.50;1043987;28;20353;-78
2022/09/23 00:36:48;;;;;;;10.10;8.93;;;;;;;7.41;100.00;101678.19;1043945;28;20381;-78
2022/09/23 00:37:20;;;;;;;11.60;9.80;;;;;;;7.37;100.00;101674.19;1043940;28;20374;-78
2022/09/23 00:37:51;;;;;;;10.70;9.70;;;;;;;7.38;100.00;101683.78;1043700;28;20381;-77
2022/09/23 00:38:23;;;;;;;10.50;9.50;;;;;;;7.42;100.00;101682.47;1043583;28;20689;-77
2022/09/23 00:38:54;;;;;;;10.70;9.60;;;;;;;7.36;100.00;101685.78;1043336;28;20299;-77
2022/09/23 00:39:26;;;;;;;10.30;9.40;;;;;;;7.35;100.00;101681.50;1043890;28;20306;-77
2022/09/23 00:39:59;;;;;;;13.57;9.77;;;;;;;7.37;100.00;101682.16;1035201;28;20328;-78
2022/09/23 00:40:31;;;;;;;11.10;10.00;;;;;;;7.36;100.00;101683.97;1034863;28;20775;-77
2022/09/23 00:41:03;;;;;;;10.82;9.77;;;;;;;7.29;100.00;101680.38;1032304;28;20355;-77
2022/09/23 00:41:35;;;;;;;11.13;9.80;;;;;;;7.33;100.00;101686.16;1032713;28;20370;-77
2022/09/23 00:42:15;;;;;;;11.20;10.10;;;;;;;7.33;100.00;101679.03;1039458;28;20320;-77
2022/09/23 00:42:50;;;;;;;13.27;10.32;;;;;;;7.34;100.00;101682.50;1037121;28;20309;-77
2022/09/23 00:43:51;;;;;;;11.05;10.02;;;;;;;7.29;100.00;101680.38;1037797;28;20300;-77
2022/09/23 00:44:42;;;;;;;10.50;9.40;;;;;;;7.34;100.00;101678.03;1037733;28;20289;-77
2022/09/23 00:45:14;;;;;;;10.13;9.20;;;;;;;7.34;100.00;101682.50;1042384;28;20397;-77
2022/09/23 00:45:49;;;;;;;10.07;9.10;;;;;;;7.39;100.00;101686.28;1039146;28;20689;-77
2022/09/23 00:46:24;;;;;;;10.38;9.48;;;;;;;7.37;100.00;101692.75;1043388;28;20294;-77
2022/09/23 00:46:56;;;;;;;14.90;10.38;;;;;;;7.37;100.00;101684.78;1039763;28;20296;-77
2022/09/23 00:47:40;;;;;;;12.20;9.43;;;;;;;7.33;100.00;101683.50;1040857;28;20357;-77
2022/09/23 00:48:19;;;;;;;10.02;9.13;;;;;;;7.31;100.00;101682.84;1038878;28;20308;-77
2022/09/23 00:48:55;;;;;;;10.88;9.85;;;;;;;7.26;100.00;101679.91;1031548;28;20301;-77
2022/09/23 00:49:28;;;;;;;11.43;10.23;;;;;;;7.29;100.00;101683.03;1031519;28;20387;-77
2022/09/23 00:50:07;;;;;;;10.68;9.48;;;;;;;7.35;100.00;101678.84;1033727;28;20312;-77
2022/09/23 00:50:41;;;;;;;10.57;9.55;;;;;;;7.31;100.00;101680.19;1034018;28;20352;-77
2022/09/23 00:51:16;;;;;;;9.88;9.02;;;;;;;7.28;100.00;101685.84;1038801;28;20343;-78
2022/09/23 00:51:56;;;;;;;10.65;9.65;;;;;;;7.32;100.00;101679.19;1043625;28;20303;-77
2022/09/23 00:52:28;;;;;;;12.55;9.80;;;;;;;7.33;100.00;101686.16;1041422;28;20382;-77
2022/09/23 00:53:03;;;;;;;10.85;9.85;;;;;;;7.26;100.00;101693.16;1041816;28;20327;-77
2022/09/23 00:53:34;;;;;;;11.00;9.43;;;;;;;7.30;100.00;101681.19;1039540;28;20308;-77
2022/09/23 00:54:06;;;;;;;10.38;9.25;;;;;;;7.29;100.00;101688.31;1040498;28;20315;-77
2022/09/23 00:54:38;;;;;;;11.50;10.30;;;;;;;7.31;100.00;101682.84;1040201;28;20296;-77
2022/09/23 00:55:14;;;;;;;10.30;9.50;;;;;;;7.23;100.00;101683.72;1043404;28;20327;-77
2022/09/23 00:55:49;;;;;;;10.48;9.57;;;;;;;7.27;100.00;101679.72;1043070;28;20338;-77
2022/09/23 00:56:22;;;;;;;10.15;9.10;;;;;;;7.26;100.00;101685.19;1039837;28;20421;-77
2022/09/23 00:56:54;;;;;;;10.68;8.90;;;;;;;7.28;100.00;101667.31;1035578;28;20289;-77
2022/09/23 00:57:26;;;;;;;10.07;9.07;;;;;;;7.13;100.00;101676.00;1036795;28;20305;-77
2022/09/23 00:58:00;;;;;;;9.82;8.93;;;;;;;7.13;100.00;101678.66;1039606;28;20377;-77
2022/09/23 00:58:33;;;;;;;10.43;9.35;;;;;;;7.19;100.00;101679.78;1035294;28;20690;-77
2022/09/23 00:59:06;;;;;;;10.65;9.68;;;;;;;7.18;100.00;101675.47;1036785;28;20320;-77
2022/09/23 00:59:37;;;;;;;10.05;9.15;;;;;;;7.15;100.00;101677.66;1035170;28;20343;-77
2022/09/23 01:00:10;;;;;;;9.95;9.10;;;;;;;7.16;100.00;101679.31;1035424;28;20685;-77
2022/09/23 01:00:41;;;;;;;10.90;9.80;;;;;;;7.20;100.00;101680.59;1028025;28;20725;-77
2022/09/23 01:01:13;;;;;;;10.98;9.93;;;;;;;7.18;100.00;101672.00;1031881;28;20297;-77
2022/09/23 01:01:45;;;;;;;10.02;9.02;;;;;;;7.16;100.00;101674.00;1030962;28;20313;-77
2022/09/23 01:02:19;;;;;;;11.32;10.25;;;;;;;7.23;100.00;101664.34;1028605;28;20656;-77
2022/09/23 01:02:51;;;;;;;10.82;9.85;;;;;;;7.20;100.00;101675.31;1032739;28;20328;-77
2022/09/23 01:03:23;;;;;;;11.07;9.73;;;;;;;7.22;100.00;101668.00;1037316;28;20296;-77
2022/09/23 01:03:56;;;;;;;11.38;10.25;;;;;;;7.23;100.00;101672.31;1040336;28;20308;-77
2022/09/23 01:04:28;;;;;;;10.10;9.20;;;;;;;7.25;100.00;101671.13;1043891;28;20299;-77
2022/09/23 01:05:02;;;;;;;9.95;9.15;;;;;;;7.23;100.00;101672.31;1036279;28;20324;-77
2022/09/23 01:05:35;;;;;;;11.40;8.77;;;;;;;7.21;100.00;101669.00;1040151;28;20296;-77
2022/09/23 01:06:07;;;;;;;13.82;9.93;;;;;;;7.18;100.00;101669.34;1034205;28;20862;-77
2022/09/23 01:06:38;;;;;;;12.40;10.32;;;;;;;7.09;100.00;101668.53;1032704;28;20368;-77
2022/09/23 01:07:10;;;;;;;12.60;10.82;;;;;;;7.12;100.00;101669.06;1031353;28;20321;-77
2022/09/23 01:07:42;;;;;;;13.23;9.85;;;;;;;7.10;100.00;101665.72;1031868;28;20699;-77
2022/09/23 01:08:14;;;;;;;11.90;10.52;;;;;;;7.09;100.00;101669.38;1035850;28;20786;-77
2022/09/23 01:08:46;;;;;;;12.45;10.05;;;;;;;7.10;100.00;101671.03;1036371;28;20316;-77
2022/09/23 01:09:19;;;;;;;12.80;10.88;;;;;;;7.06;100.00;101664.41;1043371;28;20310;-77
2022/09/23 01:09:50;;;;;;;11.52;10.43;;;;;;;7.07;100.00;101665.25;1039480;28;20291;-77
2022/09/23 01:10:22;;;;;;;11.55;10.48;;;;;;;7.06;100.00;101667.06;1039357;28;20351;-77
2022/09/23 01:10:59;;;;;;;10.60;9.38;;;;;;;7.09;100.00;101669.38;1040047;28;20879;-77
2022/09/23 01:11:43;;;;;;;11.57;10.50;;;;;;;7.11;100.00;101666.53;1039230;28;20299;-77
2022/09/23 01:12:32;;;;;;;10.60;9.52;;;;;;;7.07;100.00;101660.78;1042521;28;20837;-77
2022/09/23 01:13:14;;;;;;;11.38;10.20;;;;;;;7.12;100.00;101662.91;1039270;28;20331;-77
2022/09/23 01:14:26;;;;;;;9.55;8.73;;;;;;;7.17;100.00;101670.34;1033251;28;20293;-77
2022/09/23 01:15:21;;;;;;;13.13;8.77;;;;;;;7.12;100.00;101666.41;1034394;28;20715;-77
2022/09/23 01:16:22;;;;;;;11.20;10.05;;;;;;;7.12;100.00;101669.06;1038787;28;20054;-78
2022/09/23 01:17:20;;;;;;;9.27;8.38;;;;;;;7.22;100.00;101666.19;1040661;28;20299;-77
2022/09/23 01:18:15;;;;;;;9.85;8.57;;;;;;;7.17;100.00;101667.69;1043612;28;20342;-77
2022/09/23 01:19:01;;;;;;;10.43;9.32;;;;;;;7.16;100.00;101668.69;1036712;28;20328;-77
2022/09/23 01:19:48;;;;;;;10.38;8.43;;;;;;;7.19;100.00;101663.06;1043195;28;20299;-77
2022/09/23 01:21:08;;;;;;;11.60;8.68;;;;;;;7.17;100.00;101660.59;1041105;28;20307;-77
2022/09/23 01:22:03;;;;;;;9.82;8.88;;;;;;;7.19;100.00;101665.72;1035261;28;20671;-77
2022/09/23 01:22:42;;;;;;;9.65;8.80;;;;;;;7.23;100.00;101659.06;1041996;28;20370;-77
2022/09/23 01:23:26;;;;;;;12.10;8.70;;;;;;;7.22;100.00;101662.72;1043634;28;20456;-77
2022/09/23 01:24:18;;;;;;;10.40;8.73;;;;;;;7.19;100.00;101658.59;1043194;28;20315;-77
2022/09/23 01:25:14;;;;;;;12.63;9.77;;;;;;;7.23;100.00;101659.88;1043598;28;20540;-77
2022/09/23 01:25:55;;;;;;;11.48;9.18;;;;;;;7.24;100.00;101660.69;1043456;28;20913;-77
2022/09/23 01:27:21;;;;;;;10.77;8.90;;;;;;;7.30;100.00;101660.00;1046911;28;20318;-77
2022/09/23 01:28:24;;;;;;;11.65;9.65;;;;;;;7.20;100.00;101659.41;1031008;28;20042;-77
2022/09/23 01:29:26;;;;;;;10.57;9.02;;;;;;;7.19;100.00;101657.75;1023123;29;20817;-77
2022/09/23 01:30:15;;;;;;;9.32;8.43;;;;;;;7.16;100.00;101658.09;1030359;28;20387;-77
2022/09/23 01:31:03;;;;;;;9.48;8.48;;;;;;;7.17;100.00;101654.47;1040965;28;21016;-77
2022/09/23 01:32:04;;;;;;;9.93;8.93;;;;;;;7.15;100.00;101661.75;1041502;28;20306;-77
2022/09/23 01:32:36;;;;;;;14.50;9.15;;;;;;;7.18;100.00;101662.22;1042522;28;20622;-77
2022/09/23 01:33:44;;;;;;;9.18;8.15;;;;;;;7.08;100.00;101657.13;1043630;28;20060;-78
2022/09/23 01:34:27;;;;;;;9.65;8.50;;;;;;;7.06;100.00;101648.53;1043521;28;20338;-77
2022/09/23 01:35:09;;;;;;;9.88;8.88;;;;;;;7.04;100.00;101657.66;1043332;28;20299;-77
2022/09/23 01:35:49;;;;;;;9.23;8.25;;;;;;;7.05;100.00;101657.47;1043827;28;20789;-77
2022/09/23 01:36:24;;;;;;;9.18;8.30;;;;;;;7.04;100.00;101650.53;1043491;28;20303;-77
2022/09/23 01:37:08;;;;;;;9.77;8.90;;;;;;;7.00;100.00;101659.81;1043109;28;20052;-77
2022/09/23 01:37:47;;;;;;;12.80;9.32;;;;;;;7.06;100.00;101653.00;1039357;28;20288;-77
2022/09/23 01:38:33;;;;;;;9.30;8.50;;;;;;;7.06;100.00;101653.00;1034634;28;20311;-77
2022/09/23 01:39:13;;;;;;;9.30;8.48;;;;;;;7.04;100.00;101661.13;1039349;28;20801;-77
2022/09/23 01:40:00;;;;;;;9.10;8.30;;;;;;;7.05;100.00;101652.19;1035629;28;20292;-77
2022/09/23 01:40:52;;;;;;;10.70;9.45;;;;;;;7.06;100.00;101651.19;1034954;28;20045;-77
2022/09/23 01:41:33;;;;;;;8.93;8.02;;;;;;;7.05;100.00;101656.66;1037345;28;20301;-77
2022/09/23 01:42:16;;;;;;;11.05;9.50;;;;;;;7.09;100.00;101657.94;1043654;28;20306;-77
2022/09/23 01:42:59;;;;;;;8.77;7.97;;;;;;;7.02;100.00;101652.53;1039133;28;20450;-77
2022/09/23 01:43:36;;;;;;;10.25;8.82;;;;;;;7.11;100.00;101651.47;1035596;28;20392;-77
2022/09/23 01:44:28;;;;;;;10.40;9.38;;;;;;;7.05;100.00;101646.06;1031409;28;20293;-77
2022/09/23 01:45:14;;;;;;;;;;;;;;;6.99;100.00;101647.56;1039683;28;20355;-77
2022/09/23 01:45:46;;;;;;;10.35;9.05;;;;;;;7.01;100.00;101645.56;1044116;28;19920;-77
2022/09/23 01:46:26;;;;;;;12.35;8.80;;;;;;;6.94;100.00;101644.63;1038952;28;20855;-77
2022/09/23 01:47:05;;;;;;;8.55;7.78;;;;;;;6.96;100.00;101634.69;1039397;28;20642;-77
2022/09/23 01:47:41;;;;;;;8.35;7.63;;;;;;;7.01;100.00;101648.22;1036849;28;20132;-77
2022/09/23 01:48:37;;;;;;;9.30;8.43;;;;;;;6.95;100.00;101645.44;1037489;28;20438;-77
2022/09/23 01:49:15;;;;;;;9.27;8.38;;;;;;;6.92;100.00;101636.03;1037496;28;20305;-77
2022/09/23 01:50:55;;;;;;;10.73;9.25;;;;;;;6.87;100.00;101642.84;1037413;28;20771;-77
2022/09/23 01:51:06;;;;;;;;;;;;;;;6.90;100.00;101642.50;1042099;28;20342;-77
2022/09/23 01:51:43;;;;;;;9.50;8.50;;;;;;;6.91;100.00;101634.38;1041545;28;19920;-77
2022/09/23 01:52:22;;;;;;;8.43;7.57;;;;;;;6.89;100.00;101639.03;1035676;28;20394;-77
2022/09/23 01:52:58;;;;;;;9.60;8.70;;;;;;;6.92;100.00;101641.31;1035387;28;20296;-77
2022/09/23 01:53:49;;;;;;;13.10;9.38;;;;;;;6.94;100.00;101636.69;1034226;28;20289;-77
2022/09/23 01:54:42;;;;;;;10.18;9.15;;;;;;;6.93;100.00;101642.97;1039344;28;20296;-77
2022/09/23 01:55:27;;;;;;;9.57;8.68;;;;;;;6.96;100.00;101639.97;1039238;28;20748;-77
2022/09/23 01:56:03;;;;;;;9.43;8.25;;;;;;;6.95;100.00;101635.69;1035143;28;20742;-77
2022/09/23 01:56:39;;;;;;;9.07;8.25;;;;;;;6.98;100.00;101639.81;1038502;28;20369;-77
2022/09/23 01:57:18;;;;;;;10.55;9.07;;;;;;;6.95;100.00;101640.97;1038634;28;20331;-77
2022/09/23 01:57:56;;;;;;;11.18;8.48;;;;;;;6.86;100.00;101633.25;1040482;28;20773;-77
2022/09/23 01:58:35;;;;;;;9.48;8.55;;;;;;;6.88;100.00;101640.03;1038427;28;20316;-77
2022/09/23 01:59:25;;;;;;;10.25;8.38;;;;;;;6.90;100.00;101632.72;1038641;28;20303;-77
2022/09/23 02:00:26;;;;;;;16.50;9.88;;;;;;;6.87;100.00;101630.44;1039339;28;20315;-77
2022/09/23 02:01:03;;;;;;;9.15;8.27;;;;;;;6.88;100.00;101632.09;1026567;28;20314;-77
2022/09/23 02:01:40;;;;;;;8.82;8.02;;;;;;;6.89;100.00;101630.25;1032234;28;20121;-77
2022/09/23 02:02:36;;;;;;;9.35;8.10;;;;;;;6.89;100.00;101631.09;1031497;28;20313;-77
2022/09/23 02:03:15;;;;;;;9.48;8.52;;;;;;;6.91;100.00;101628.25;1036612;28;20842;-77
2022/09/23 02:03:54;;;;;;;12.93;8.50;;;;;;;6.85;100.00;101627.13;1042985;28;20848;-77
2022/09/23 02:04:39;;;;;;;9.82;8.65;;;;;;;6.85;100.00;101632.44;1043483;28;20384;-77
2022/09/23 02:05:17;;;;;;;9.77;8.40;;;;;;;6.89;100.00;101632.91;1039491;28;20303;-77
2022/09/23 02:06:02;;;;;;;9.20;8.38;;;;;;;6.91;100.00;101634.38;1041511;28;20382;-77
2022/09/23 02:06:45;;;;;;;8.70;7.80;;;;;;;6.88;100.00;101634.72;1039009;28;20308;-77
2022/09/23 02:07:20;;;;;;;8.73;7.90;;;;;;;6.86;100.00;101635.91;1034978;28;20351;-77
2022/09/23 02:07:58;;;;;;;8.52;7.72;;;;;;;6.77;100.00;101637.75;1035029;28;20316;-76
2022/09/23 02:08:35;;;;;;;10.35;8.35;;;;;;;6.84;100.00;101628.09;1034483;28;20682;-77
2022/09/23 02:09:11;;;;;;;10.32;9.18;;;;;;;6.86;100.00;101631.44;1031031;28;20835;-77
2022/09/23 02:09:47;;;;;;;9.88;8.00;;;;;;;6.83;100.00;101637.03;1023143;28;20768;-77
2022/09/23 02:10:23;;;;;;;12.18;8.10;;;;;;;6.82;100.00;101632.75;1032264;28;20793;-77
2022/09/23 02:11:00;;;;;;;8.50;7.72;;;;;;;6.78;100.00;101634.09;1040026;28;20654;-77
2022/09/23 02:11:35;;;;;;;11.88;8.18;;;;;;;6.84;100.00;101633.41;1043880;28;20335;-77
2022/09/23 02:12:11;;;;;;;9.52;8.30;;;;;;;6.76;100.00;101626.31;1045460;28;20345;-77
2022/09/23 02:12:46;;;;;;;9.20;8.30;;;;;;;6.74;100.00;101638.09;1038842;28;20339;-77
2022/09/23 02:13:40;;;;;;;9.07;8.10;;;;;;;6.72;100.00;101634.78;1033441;28;20316;-77
2022/09/23 02:14:22;;;;;;;9.05;8.20;;;;;;;6.68;100.00;101628.19;1028347;28;20495;-77
2022/09/23 02:15:01;;;;;;;8.60;7.70;;;;;;;6.66;100.00;101630.19;1036934;28;20869;-77
2022/09/23 02:15:40;;;;;;;9.18;8.13;;;;;;;6.59;100.00;101629.22;1038056;28;20298;-77
2022/09/23 02:16:37;;;;;;;8.88;7.93;;;;;;;6.63;100.00;101630.53;1032464;28;20379;-77
2022/09/23 02:17:14;;;;;;;9.70;8.77;;;;;;;6.61;100.00;101627.22;1034708;28;20433;-77
2022/09/23 02:17:54;;;;;;;14.32;9.30;;;;;;;6.60;100.00;101628.22;1035971;28;20289;-77
2022/09/23 02:18:37;;;;;;;11.65;8.20;;;;;;;6.54;100.00;101627.06;1039089;28;20822;-77
2022/09/23 02:19:17;;;;;;;8.60;7.53;;;;;;;6.54;100.00;101620.94;1034900;28;20121;-77
2022/09/23 02:19:56;;;;;;;9.02;8.02;;;;;;;6.58;100.00;101623.09;1039195;28;20308;-77
2022/09/23 02:20:30;;;;;;;10.43;8.50;;;;;;;6.49;100.00;101619.63;1030899;28;20305;-77
2022/09/23 02:21:06;;;;;;;8.27;7.53;;;;;;;6.46;100.00;101619.97;1031036;28;20301;-77
2022/09/23 02:21:41;;;;;;;12.10;7.88;;;;;;;6.39;100.00;101624.31;1029161;28;20396;-77
2022/09/23 02:22:24;;;;;;;9.32;8.45;;;;;;;6.43;100.00;101616.84;1038984;28;20300;-77
2022/09/23 02:23:06;;;;;;;9.45;8.75;;;;;;;6.44;100.00;101626.44;1042710;28;20392;-77
2022/09/23 02:23:51;;;;;;;8.80;7.88;;;;;;;6.44;100.00;101621.16;1043800;28;20389;-77
2022/09/23 02:24:27;;;;;;;8.65;7.45;;;;;;;6.46;100.00;101630.56;1046000;28;20354;-77
2022/09/23 02:24:59;;;;;;;10.02;8.25;;;;;;;6.48;100.00;101620.63;1045353;28;20380;-77
2022/09/23 02:25:57;;;;;;;10.68;9.48;;;;;;;6.34;100.00;101620.53;1037177;28;20651;-77
2022/09/23 02:26:40;;;;;;;8.48;7.55;;;;;;;6.39;100.00;101624.31;1031350;28;20297;-77
2022/09/23 02:27:38;;;;;;;8.93;7.75;;;;;;;6.42;100.00;101623.97;1037157;28;20304;-77
2022/09/23 02:28:31;;;;;;;8.93;7.95;;;;;;;6.41;100.00;101624.97;1044585;28;20295;-77
2022/09/23 02:29:20;;;;;;;8.57;7.70;;;;;;;6.42;100.00;101623.13;1041506;28;20304;-77
2022/09/23 02:30:14;;;;;;;8.80;7.97;;;;;;;6.43;100.00;101625.63;1036754;28;20363;-77
2022/09/23 02:30:50;;;;;;;8.32;7.60;;;;;;;6.40;100.00;101620.66;1038891;28;20407;-77
2022/09/23 02:31:32;;;;;;;9.85;8.43;;;;;;;6.40;100.00;101623.31;1035851;28;20432;-77
2022/09/23 02:32:45;;;;;;;9.55;7.53;;;;;;;6.40;100.00;101625.94;1038883;28;20821;-77
2022/09/23 02:33:23;;;;;;;8.00;7.30;;;;;;;6.41;100.00;101622.31;1037706;28;20307;-77
2022/09/23 02:34:05;;;;;;;8.63;7.82;;;;;;;6.37;100.00;101621.00;1037984;28;20801;-77
2022/09/23 02:35:22;;;;;;;9.55;8.52;;;;;;;6.38;100.00;101622.66;1039364;28;20438;-77
2022/09/23 02:35:59;;;;;;;9.98;7.20;;;;;;;6.37;100.00;101621.00;1036367;28;20310;-77
2022/09/23 02:36:43;;;;;;;8.57;7.88;;;;;;;6.36;100.00;101619.34;1039068;28;20299;-77
2022/09/23 02:37:27;;;;;;;8.18;7.47;;;;;;;6.36;100.00;101619.34;1038961;28;20358;-77
2022/09/23 02:38:14;;;;;;;8.30;7.50;;;;;;;6.37;100.00;101618.34;1038698;28;20494;-77
2022/09/23 02:38:50;;;;;;;9.52;8.55;;;;;;;6.39;100.00;101616.38;1043182;28;20299;-77
2022/09/23 02:39:26;;;;;;;11.40;7.78;;;;;;;6.31;100.00;101611.09;1035409;28;20297;-77
2022/09/23 02:40:15;;;;;;;8.60;7.32;;;;;;;6.26;100.00;101613.41;1031067;28;20405;-77
2022/09/23 02:40:53;;;;;;;9.20;8.18;;;;;;;6.27;100.00;101615.06;1028113;28;20302;-77
2022/09/23 02:41:48;;;;;;;8.48;7.35;;;;;;;6.29;100.00;101610.41;1039188;28;20315;-77
2022/09/23 02:42:24;;;;;;;10.77;8.35;;;;;;;6.25;100.00;101610.94;1038746;28;20640;-77
2022/09/23 02:43:13;;;;;;;9.45;8.60;;;;;;;6.27;100.00;101611.59;1039233;28;20304;-77
2022/09/23 02:43:55;;;;;;;12.93;8.30;;;;;;;6.22;100.00;101612.09;1039149;28;20350;-77
2022/09/23 02:44:27;;;;;;;8.48;7.57;;;;;;;6.18;100.00;101608.16;1038346;28;20307;-77
2022/09/23 02:44:59;;;;;;;8.63;7.63;;;;;;;6.19;100.00;101607.16;1039037;28;20287;-77
2022/09/23 02:45:31;;;;;;;7.85;7.10;;;;;;;6.17;100.00;101609.13;1037277;28;20387;-77
2022/09/23 02:46:04;;;;;;;9.98;8.25;;;;;;;6.19;100.00;101609.78;1035087;28;20311;-77
2022/09/23 02:46:37;;;;;;;9.70;8.73;;;;;;;6.22;100.00;101612.09;1034868;28;20427;-77
2022/09/23 02:47:09;;;;;;;8.65;7.72;;;;;;;6.19;100.00;101607.16;1034577;28;20316;-77
2022/09/23 02:47:43;;;;;;;8.43;7.60;;;;;;;6.16;100.00;101607.50;1039254;28;20310;-77
2022/09/23 02:48:21;;;;;;;7.38;6.68;;;;;;;6.08;100.00;101610.16;1040017;28;20802;-77
2022/09/23 02:49:10;;;;;;;7.13;6.43;;;;;;;6.03;100.00;101604.53;1034037;28;21398;-77
2022/09/23 02:49:41;;;;;;;7.72;6.88;;;;;;;6.06;100.00;101606.84;1031286;28;20388;-77
2022/09/23 02:50:13;;;;;;;8.10;7.35;;;;;;;6.04;100.00;101611.50;1034859;28;20386;-77
2022/09/23 02:50:46;;;;;;;7.93;7.13;;;;;;;6.04;100.00;101606.19;1040021;28;20428;-77
2022/09/23 02:51:18;;;;;;;9.23;8.43;;;;;;;6.03;100.00;101607.19;1037002;28;20316;-77
2022/09/23 02:51:51;;;;;;;8.50;7.80;;;;;;;5.96;100.00;101606.19;1038371;28;20311;-77
2022/09/23 02:52:23;;;;;;;8.40;6.95;;;;;;;5.94;100.00;101609.00;1040207;28;20343;-77
2022/09/23 02:52:55;;;;;;;7.90;7.10;;;;;;;5.90;100.00;101607.69;1040163;28;20385;-77
2022/09/23 02:53:27;;;;;;;7.85;7.13;;;;;;;5.95;100.00;101609.81;1039762;28;20302;-77
2022/09/23 02:54:01;;;;;;;8.75;7.95;;;;;;;5.97;100.00;101606.03;1038703;28;20709;-77
2022/09/23 02:54:33;;;;;;;8.30;7.50;;;;;;;6.03;100.00;101612.47;1031977;28;20323;-77
2022/09/23 02:55:07;;;;;;;7.75;7.03;;;;;;;6.00;100.00;101607.50;1035066;28;20311;-77
2022/09/23 02:55:40;;;;;;;8.60;7.70;;;;;;;5.95;100.00;101610.66;1040818;28;20393;-77
2022/09/23 02:56:18;;;;;;;10.43;8.07;;;;;;;5.98;100.00;101602.38;1044342;28;20292;-77
2022/09/23 02:56:52;;;;;;;8.57;7.72;;;;;;;5.89;100.00;101604.22;1040863;28;20323;-77
2022/09/23 02:57:23;;;;;;;9.52;7.25;;;;;;;5.80;100.00;101599.09;1043009;28;20350;-77
2022/09/23 02:57:55;;;;;;;8.13;7.35;;;;;;;5.84;100.00;101611.78;1043256;28;20318;-77
2022/09/23 02:58:27;;;;;;;7.85;7.15;;;;;;;5.83;100.00;101602.22;1038197;28;20288;-77
2022/09/23 02:58:58;;;;;;;8.00;7.20;;;;;;;5.81;100.00;101596.28;1038932;28;20361;-77